sensor_id;sensor_type;location;lat;lon;timestamp;P1;durP1;ratioP1;P2;durP2;ratioP2
4047;SDS011;2038;51.728;6.674;2023-02-28T00:01:29;15.83;;;8.67;;
4047;SDS011;2038;51.728;6.674;2023-02-28T00:03:56;8.50;;;7.60;;
4047;SDS011;2038;51.728;6.674;2023-02-28T00:06:22;11.50;;;8.40;;
4047;SDS011;2038;51.728;6.674;2023-02-28T00:08:49;11.20;;;9.00;;
4047;SDS011;2038;51.728;6.674;2023-02-28T00:11:15;11.20;;;8.50;;
4047;SDS011;2038;51.728;6.674;2023-02-28T00:13:43;10.50;;;7.63;;
4047;SDS011;2038;51.728;6.674;2023-02-28T00:16:12;11.70;;;7.70;;
4047;SDS011;2038;51.728;6.674;2023-02-28T00:18:42;15.90;;;8.80;;
4047;SDS011;2038;51.728;6.674;2023-02-28T00:21:08;11.60;;;8.30;;
4047;SDS011;2038;51.728;6.674;2023-02-28T00:23:34;10.70;;;7.30;;
4047;SDS011;2038;51.728;6.674;2023-02-28T00:26:01;9.37;;;7.80;;
4047;SDS011;2038;51.728;6.674;2023-02-28T00:28:28;10.50;;;6.80;;
4047;SDS011;2038;51.728;6.674;2023-02-28T00:30:54;11.53;;;8.43;;
4047;SDS011;2038;51.728;6.674;2023-02-28T00:33:22;9.80;;;8.27;;
4047;SDS011;2038;51.728;6.674;2023-02-28T00:35:48;11.00;;;8.10;;
4047;SDS011;2038;51.728;6.674;2023-02-28T00:38:14;9.90;;;8.00;;
4047;SDS011;2038;51.728;6.674;2023-02-28T00:40:41;11.50;;;7.50;;
4047;SDS011;2038;51.728;6.674;2023-02-28T00:43:08;14.87;;;8.50;;
4047;SDS011;2038;51.728;6.674;2023-02-28T00:45:34;12.00;;;8.83;;
4047;SDS011;2038;51.728;6.674;2023-02-28T00:48:00;10.23;;;8.30;;
4047;SDS011;2038;51.728;6.674;2023-02-28T00:50:26;11.17;;;7.77;;
4047;SDS011;2038;51.728;6.674;2023-02-28T00:52:53;11.80;;;8.30;;
4047;SDS011;2038;51.728;6.674;2023-02-28T00:55:18;11.17;;;8.07;;
4047;SDS011;2038;51.728;6.674;2023-02-28T00:57:45;12.53;;;8.70;;
4047;SDS011;2038;51.728;6.674;2023-02-28T01:00:11;19.77;;;7.93;;
4047;SDS011;2038;51.728;6.674;2023-02-28T01:02:38;11.43;;;8.60;;
4047;SDS011;2038;51.728;6.674;2023-02-28T01:05:04;9.10;;;8.20;;
4047;SDS011;2038;51.728;6.674;2023-02-28T01:07:31;16.27;;;8.37;;
4047;SDS011;2038;51.728;6.674;2023-02-28T01:09:57;13.03;;;9.07;;
4047;SDS011;2038;51.728;6.674;2023-02-28T01:12:23;10.03;;;8.93;;
4047;SDS011;2038;51.728;6.674;2023-02-28T01:14:49;11.40;;;8.13;;
4047;SDS011;2038;51.728;6.674;2023-02-28T01:17:15;9.40;;;7.90;;
4047;SDS011;2038;51.728;6.674;2023-02-28T01:19:41;10.80;;;8.83;;
4047;SDS011;2038;51.728;6.674;2023-02-28T01:22:07;9.43;;;7.70;;
4047;SDS011;2038;51.728;6.674;2023-02-28T01:24:34;9.40;;;8.20;;
4047;SDS011;2038;51.728;6.674;2023-02-28T01:27:00;15.50;;;8.70;;
4047;SDS011;2038;51.728;6.674;2023-02-28T01:29:26;12.50;;;8.10;;
4047;SDS011;2038;51.728;6.674;2023-02-28T01:31:52;10.00;;;9.00;;
4047;SDS011;2038;51.728;6.674;2023-02-28T01:34:18;12.97;;;8.53;;
4047;SDS011;2038;51.728;6.674;2023-02-28T01:36:45;12.60;;;8.13;;
4047;SDS011;2038;51.728;6.674;2023-02-28T01:39:11;11.13;;;8.13;;
4047;SDS011;2038;51.728;6.674;2023-02-28T01:41:37;13.93;;;8.43;;
4047;SDS011;2038;51.728;6.674;2023-02-28T01:44:05;13.00;;;8.60;;
4047;SDS011;2038;51.728;6.674;2023-02-28T01:47:29;12.67;;;7.63;;
4047;SDS011;2038;51.728;6.674;2023-02-28T01:50:02;12.97;;;9.40;;
4047;SDS011;2038;51.728;6.674;2023-02-28T01:52:38;17.03;;;8.67;;
4047;SDS011;2038;51.728;6.674;2023-02-28T01:55:06;13.40;;;8.60;;
4047;SDS011;2038;51.728;6.674;2023-02-28T01:57:38;13.30;;;7.13;;
4047;SDS011;2038;51.728;6.674;2023-02-28T02:00:17;10.07;;;8.03;;
4047;SDS011;2038;51.728;6.674;2023-02-28T02:02:52;8.40;;;5.80;;
4047;SDS011;2038;51.728;6.674;2023-02-28T02:05:33;10.80;;;7.23;;
4047;SDS011;2038;51.728;6.674;2023-02-28T02:08:05;9.10;;;7.30;;
4047;SDS011;2038;51.728;6.674;2023-02-28T02:10:56;9.60;;;7.50;;
4047;SDS011;2038;51.728;6.674;2023-02-28T02:16:59;11.97;;;7.33;;
4047;SDS011;2038;51.728;6.674;2023-02-28T02:23:42;9.13;;;7.07;;
4047;SDS011;2038;51.728;6.674;2023-02-28T02:30:00;12.00;;;7.40;;
4047;SDS011;2038;51.728;6.674;2023-02-28T02:32:58;7.93;;;6.20;;
4047;SDS011;2038;51.728;6.674;2023-02-28T02:36:11;9.50;;;6.93;;
4047;SDS011;2038;51.728;6.674;2023-02-28T02:38:52;6.63;;;5.93;;
4047;SDS011;2038;51.728;6.674;2023-02-28T02:44:51;11.20;;;6.10;;
4047;SDS011;2038;51.728;6.674;2023-02-28T02:47:47;7.80;;;5.57;;
4047;SDS011;2038;51.728;6.674;2023-02-28T02:50:22;7.47;;;5.60;;
4047;SDS011;2038;51.728;6.674;2023-02-28T02:53:03;11.20;;;6.47;;
4047;SDS011;2038;51.728;6.674;2023-02-28T02:55:34;10.27;;;6.60;;
4047;SDS011;2038;51.728;6.674;2023-02-28T02:58:13;12.07;;;7.30;;
4047;SDS011;2038;51.728;6.674;2023-02-28T03:00:47;11.37;;;7.30;;
4047;SDS011;2038;51.728;6.674;2023-02-28T03:03:21;10.63;;;6.97;;
4047;SDS011;2038;51.728;6.674;2023-02-28T03:05:53;9.67;;;6.60;;
4047;SDS011;2038;51.728;6.674;2023-02-28T03:08:23;9.73;;;6.23;;
4047;SDS011;2038;51.728;6.674;2023-02-28T03:10:50;8.00;;;6.50;;
4047;SDS011;2038;51.728;6.674;2023-02-28T03:17:00;7.23;;;5.80;;
4047;SDS011;2038;51.728;6.674;2023-02-28T03:23:22;10.73;;;7.07;;
4047;SDS011;2038;51.728;6.674;2023-02-28T03:26:19;11.57;;;6.30;;
4047;SDS011;2038;51.728;6.674;2023-02-28T03:31:48;9.57;;;6.73;;
4047;SDS011;2038;51.728;6.674;2023-02-28T03:34:29;7.23;;;6.50;;
4047;SDS011;2038;51.728;6.674;2023-02-28T03:37:11;12.07;;;7.10;;
4047;SDS011;2038;51.728;6.674;2023-02-28T03:39:54;9.80;;;6.83;;
4047;SDS011;2038;51.728;6.674;2023-02-28T03:42:31;9.77;;;6.90;;
4047;SDS011;2038;51.728;6.674;2023-02-28T03:50:45;8.43;;;6.13;;
4047;SDS011;2038;51.728;6.674;2023-02-28T03:53:25;7.83;;;6.40;;
4047;SDS011;2038;51.728;6.674;2023-02-28T03:56:12;7.57;;;6.90;;
4047;SDS011;2038;51.728;6.674;2023-02-28T03:59:00;11.20;;;6.80;;
4047;SDS011;2038;51.728;6.674;2023-02-28T04:01:52;9.10;;;7.23;;
4047;SDS011;2038;51.728;6.674;2023-02-28T04:04:19;8.00;;;6.97;;
4047;SDS011;2038;51.728;6.674;2023-02-28T04:06:49;10.27;;;7.23;;
4047;SDS011;2038;51.728;6.674;2023-02-28T04:09:18;12.10;;;6.87;;
4047;SDS011;2038;51.728;6.674;2023-02-28T04:14:17;6.53;;;5.57;;
4047;SDS011;2038;51.728;6.674;2023-02-28T04:16:44;8.07;;;6.73;;
4047;SDS011;2038;51.728;6.674;2023-02-28T04:19:11;9.47;;;6.53;;
4047;SDS011;2038;51.728;6.674;2023-02-28T04:21:40;10.20;;;7.63;;
4047;SDS011;2038;51.728;6.674;2023-02-28T04:24:12;9.37;;;6.80;;
4047;SDS011;2038;51.728;6.674;2023-02-28T04:26:46;12.83;;;7.80;;
4047;SDS011;2038;51.728;6.674;2023-02-28T04:29:35;11.30;;;7.30;;
4047;SDS011;2038;51.728;6.674;2023-02-28T04:32:01;8.40;;;6.67;;
4047;SDS011;2038;51.728;6.674;2023-02-28T04:34:30;10.97;;;6.60;;
4047;SDS011;2038;51.728;6.674;2023-02-28T04:36:58;9.33;;;6.87;;
4047;SDS011;2038;51.728;6.674;2023-02-28T04:39:27;11.73;;;7.80;;
4047;SDS011;2038;51.728;6.674;2023-02-28T04:42:01;7.63;;;6.60;;
4047;SDS011;2038;51.728;6.674;2023-02-28T04:44:27;7.90;;;6.30;;
4047;SDS011;2038;51.728;6.674;2023-02-28T04:46:53;7.27;;;6.57;;
4047;SDS011;2038;51.728;6.674;2023-02-28T04:49:19;8.23;;;5.90;;
4047;SDS011;2038;51.728;6.674;2023-02-28T04:51:44;11.07;;;8.00;;
4047;SDS011;2038;51.728;6.674;2023-02-28T04:54:12;10.37;;;7.30;;
4047;SDS011;2038;51.728;6.674;2023-02-28T04:56:38;7.10;;;6.40;;
4047;SDS011;2038;51.728;6.674;2023-02-28T04:59:04;9.80;;;5.87;;
4047;SDS011;2038;51.728;6.674;2023-02-28T05:01:31;8.37;;;6.40;;
4047;SDS011;2038;51.728;6.674;2023-02-28T05:04:00;7.23;;;6.30;;
4047;SDS011;2038;51.728;6.674;2023-02-28T05:06:30;8.20;;;5.90;;
4047;SDS011;2038;51.728;6.674;2023-02-28T05:08:58;8.07;;;6.67;;
4047;SDS011;2038;51.728;6.674;2023-02-28T05:11:25;9.60;;;6.77;;
4047;SDS011;2038;51.728;6.674;2023-02-28T05:13:59;7.10;;;5.77;;
4047;SDS011;2038;51.728;6.674;2023-02-28T05:16:36;8.80;;;7.03;;
4047;SDS011;2038;51.728;6.674;2023-02-28T05:19:02;9.63;;;6.23;;
4047;SDS011;2038;51.728;6.674;2023-02-28T05:23:56;9.73;;;6.70;;
4047;SDS011;2038;51.728;6.674;2023-02-28T05:26:29;8.53;;;6.10;;
4047;SDS011;2038;51.728;6.674;2023-02-28T05:28:59;6.47;;;5.77;;
4047;SDS011;2038;51.728;6.674;2023-02-28T05:31:25;6.50;;;5.73;;
4047;SDS011;2038;51.728;6.674;2023-02-28T05:33:51;10.60;;;7.50;;
4047;SDS011;2038;51.728;6.674;2023-02-28T05:36:17;8.07;;;6.60;;
4047;SDS011;2038;51.728;6.674;2023-02-28T05:38:45;8.50;;;6.30;;
4047;SDS011;2038;51.728;6.674;2023-02-28T05:41:16;8.73;;;6.13;;
4047;SDS011;2038;51.728;6.674;2023-02-28T05:43:44;11.70;;;6.77;;
4047;SDS011;2038;51.728;6.674;2023-02-28T05:46:12;8.53;;;6.57;;
4047;SDS011;2038;51.728;6.674;2023-02-28T05:48:39;6.97;;;6.20;;
4047;SDS011;2038;51.728;6.674;2023-02-28T05:51:07;7.00;;;6.27;;
4047;SDS011;2038;51.728;6.674;2023-02-28T05:53:34;8.23;;;5.90;;
4047;SDS011;2038;51.728;6.674;2023-02-28T05:56:01;6.50;;;5.80;;
4047;SDS011;2038;51.728;6.674;2023-02-28T05:58:28;8.73;;;5.77;;
4047;SDS011;2038;51.728;6.674;2023-02-28T06:00:56;5.83;;;5.10;;
4047;SDS011;2038;51.728;6.674;2023-02-28T06:03:43;9.70;;;6.03;;
4047;SDS011;2038;51.728;6.674;2023-02-28T06:06:09;13.93;;;7.17;;
4047;SDS011;2038;51.728;6.674;2023-02-28T06:08:35;7.93;;;6.03;;
4047;SDS011;2038;51.728;6.674;2023-02-28T06:11:02;15.30;;;6.83;;
4047;SDS011;2038;51.728;6.674;2023-02-28T06:13:29;9.43;;;5.53;;
4047;SDS011;2038;51.728;6.674;2023-02-28T06:15:55;7.40;;;6.50;;
4047;SDS011;2038;51.728;6.674;2023-02-28T06:18:21;6.27;;;5.60;;
4047;SDS011;2038;51.728;6.674;2023-02-28T06:20:53;7.83;;;5.70;;
4047;SDS011;2038;51.728;6.674;2023-02-28T06:23:20;7.37;;;5.67;;
4047;SDS011;2038;51.728;6.674;2023-02-28T06:25:47;9.60;;;6.10;;
4047;SDS011;2038;51.728;6.674;2023-02-28T06:28:14;9.00;;;5.93;;
4047;SDS011;2038;51.728;6.674;2023-02-28T06:30:40;7.27;;;6.20;;
4047;SDS011;2038;51.728;6.674;2023-02-28T06:33:06;9.00;;;6.30;;
4047;SDS011;2038;51.728;6.674;2023-02-28T06:35:32;7.10;;;6.40;;
4047;SDS011;2038;51.728;6.674;2023-02-28T06:37:58;7.40;;;6.70;;
4047;SDS011;2038;51.728;6.674;2023-02-28T06:40:23;7.23;;;6.53;;
4047;SDS011;2038;51.728;6.674;2023-02-28T06:42:49;7.07;;;5.73;;
4047;SDS011;2038;51.728;6.674;2023-02-28T06:45:15;11.47;;;5.67;;
4047;SDS011;2038;51.728;6.674;2023-02-28T06:47:41;8.60;;;6.30;;
4047;SDS011;2038;51.728;6.674;2023-02-28T06:50:08;6.80;;;5.80;;
4047;SDS011;2038;51.728;6.674;2023-02-28T06:52:38;6.67;;;6.10;;
4047;SDS011;2038;51.728;6.674;2023-02-28T06:55:04;6.30;;;5.80;;
4047;SDS011;2038;51.728;6.674;2023-02-28T06:57:33;8.07;;;6.27;;
4047;SDS011;2038;51.728;6.674;2023-02-28T07:00:02;6.57;;;5.97;;
4047;SDS011;2038;51.728;6.674;2023-02-28T07:02:35;8.57;;;6.93;;
4047;SDS011;2038;51.728;6.674;2023-02-28T07:05:02;8.90;;;6.13;;
4047;SDS011;2038;51.728;6.674;2023-02-28T07:07:32;8.27;;;5.97;;
4047;SDS011;2038;51.728;6.674;2023-02-28T07:09:58;8.03;;;6.30;;
4047;SDS011;2038;51.728;6.674;2023-02-28T07:12:24;9.27;;;6.27;;
4047;SDS011;2038;51.728;6.674;2023-02-28T07:14:50;8.20;;;6.47;;
4047;SDS011;2038;51.728;6.674;2023-02-28T07:17:15;7.00;;;5.87;;
4047;SDS011;2038;51.728;6.674;2023-02-28T07:19:41;9.27;;;5.90;;
4047;SDS011;2038;51.728;6.674;2023-02-28T07:22:07;6.37;;;5.77;;
4047;SDS011;2038;51.728;6.674;2023-02-28T07:24:33;7.43;;;6.10;;
4047;SDS011;2038;51.728;6.674;2023-02-28T07:26:59;7.53;;;5.60;;
4047;SDS011;2038;51.728;6.674;2023-02-28T07:29:26;7.03;;;6.43;;
4047;SDS011;2038;51.728;6.674;2023-02-28T07:31:52;7.33;;;5.93;;
4047;SDS011;2038;51.728;6.674;2023-02-28T07:34:19;10.23;;;5.63;;
4047;SDS011;2038;51.728;6.674;2023-02-28T07:36:46;13.83;;;6.50;;
4047;SDS011;2038;51.728;6.674;2023-02-28T07:39:11;8.90;;;7.33;;
4047;SDS011;2038;51.728;6.674;2023-02-28T07:41:37;10.47;;;6.70;;
4047;SDS011;2038;51.728;6.674;2023-02-28T07:44:08;9.37;;;6.67;;
4047;SDS011;2038;51.728;6.674;2023-02-28T07:46:35;14.20;;;6.60;;
4047;SDS011;2038;51.728;6.674;2023-02-28T07:49:02;7.30;;;6.07;;
4047;SDS011;2038;51.728;6.674;2023-02-28T07:51:29;13.10;;;8.30;;
4047;SDS011;2038;51.728;6.674;2023-02-28T07:53:56;17.13;;;5.97;;
4047;SDS011;2038;51.728;6.674;2023-02-28T07:56:23;7.57;;;6.20;;
4047;SDS011;2038;51.728;6.674;2023-02-28T07:58:48;7.10;;;6.03;;
4047;SDS011;2038;51.728;6.674;2023-02-28T08:01:14;7.40;;;5.80;;
4047;SDS011;2038;51.728;6.674;2023-02-28T08:03:41;6.67;;;6.00;;
4047;SDS011;2038;51.728;6.674;2023-02-28T08:06:07;7.90;;;5.20;;
4047;SDS011;2038;51.728;6.674;2023-02-28T08:08:44;7.20;;;5.90;;
4047;SDS011;2038;51.728;6.674;2023-02-28T08:11:10;6.73;;;5.40;;
4047;SDS011;2038;51.728;6.674;2023-02-28T08:13:36;6.40;;;5.80;;
4047;SDS011;2038;51.728;6.674;2023-02-28T08:16:02;6.23;;;5.13;;
4047;SDS011;2038;51.728;6.674;2023-02-28T08:18:28;6.73;;;6.00;;
4047;SDS011;2038;51.728;6.674;2023-02-28T08:20:53;11.33;;;6.60;;
4047;SDS011;2038;51.728;6.674;2023-02-28T08:23:19;6.97;;;5.20;;
4047;SDS011;2038;51.728;6.674;2023-02-28T08:25:52;7.03;;;5.90;;
4047;SDS011;2038;51.728;6.674;2023-02-28T08:28:21;7.30;;;5.33;;
4047;SDS011;2038;51.728;6.674;2023-02-28T08:30:47;11.40;;;5.80;;
4047;SDS011;2038;51.728;6.674;2023-02-28T08:33:13;9.30;;;6.10;;
4047;SDS011;2038;51.728;6.674;2023-02-28T08:35:39;7.40;;;5.83;;
4047;SDS011;2038;51.728;6.674;2023-02-28T08:38:05;4.90;;;4.50;;
4047;SDS011;2038;51.728;6.674;2023-02-28T08:40:31;14.13;;;6.73;;
4047;SDS011;2038;51.728;6.674;2023-02-28T08:42:57;6.70;;;5.83;;
4047;SDS011;2038;51.728;6.674;2023-02-28T08:45:24;5.70;;;4.57;;
4047;SDS011;2038;51.728;6.674;2023-02-28T08:47:50;7.30;;;5.77;;
4047;SDS011;2038;51.728;6.674;2023-02-28T08:50:20;4.83;;;4.53;;
4047;SDS011;2038;51.728;6.674;2023-02-28T08:52:46;5.30;;;4.80;;
4047;SDS011;2038;51.728;6.674;2023-02-28T08:55:13;7.23;;;5.93;;
4047;SDS011;2038;51.728;6.674;2023-02-28T08:57:39;5.43;;;4.60;;
4047;SDS011;2038;51.728;6.674;2023-02-28T09:00:05;6.83;;;5.53;;
4047;SDS011;2038;51.728;6.674;2023-02-28T09:02:33;4.77;;;4.37;;
4047;SDS011;2038;51.728;6.674;2023-02-28T09:04:59;6.73;;;5.40;;
4047;SDS011;2038;51.728;6.674;2023-02-28T09:07:25;5.27;;;4.73;;
4047;SDS011;2038;51.728;6.674;2023-02-28T09:09:50;10.87;;;4.40;;
4047;SDS011;2038;51.728;6.674;2023-02-28T09:12:22;6.57;;;5.10;;
4047;SDS011;2038;51.728;6.674;2023-02-28T09:15:00;5.60;;;4.73;;
4047;SDS011;2038;51.728;6.674;2023-02-28T09:17:27;5.90;;;5.30;;
4047;SDS011;2038;51.728;6.674;2023-02-28T09:19:53;4.50;;;4.10;;
4047;SDS011;2038;51.728;6.674;2023-02-28T09:22:19;4.70;;;4.30;;
4047;SDS011;2038;51.728;6.674;2023-02-28T09:24:45;6.07;;;4.73;;
4047;SDS011;2038;51.728;6.674;2023-02-28T09:27:10;5.20;;;4.70;;
4047;SDS011;2038;51.728;6.674;2023-02-28T09:29:36;5.07;;;4.60;;
4047;SDS011;2038;51.728;6.674;2023-02-28T09:32:02;4.53;;;4.20;;
4047;SDS011;2038;51.728;6.674;2023-02-28T09:34:30;3.83;;;3.53;;
4047;SDS011;2038;51.728;6.674;2023-02-28T09:36:56;7.13;;;4.40;;
4047;SDS011;2038;51.728;6.674;2023-02-28T09:39:22;4.40;;;4.00;;
4047;SDS011;2038;51.728;6.674;2023-02-28T09:41:51;4.30;;;3.90;;
4047;SDS011;2038;51.728;6.674;2023-02-28T09:47:13;3.20;;;3.00;;
4047;SDS011;2038;51.728;6.674;2023-02-28T09:50:16;6.90;;;3.53;;
4047;SDS011;2038;51.728;6.674;2023-02-28T09:53:19;3.57;;;3.30;;
4047;SDS011;2038;51.728;6.674;2023-02-28T09:55:59;3.00;;;2.80;;
4047;SDS011;2038;51.728;6.674;2023-02-28T09:58:37;2.40;;;2.27;;
4047;SDS011;2038;51.728;6.674;2023-02-28T10:02:00;3.33;;;3.10;;
4047;SDS011;2038;51.728;6.674;2023-02-28T10:04:44;3.97;;;3.33;;
4047;SDS011;2038;51.728;6.674;2023-02-28T10:07:41;3.33;;;3.03;;
4047;SDS011;2038;51.728;6.674;2023-02-28T10:10:47;3.60;;;3.20;;
4047;SDS011;2038;51.728;6.674;2023-02-28T10:16:06;3.47;;;3.17;;
4047;SDS011;2038;51.728;6.674;2023-02-28T10:18:57;3.87;;;3.17;;
4047;SDS011;2038;51.728;6.674;2023-02-28T10:21:36;6.07;;;3.43;;
4047;SDS011;2038;51.728;6.674;2023-02-28T10:27:16;3.13;;;2.83;;
4047;SDS011;2038;51.728;6.674;2023-02-28T10:29:52;3.87;;;3.00;;
4047;SDS011;2038;51.728;6.674;2023-02-28T10:32:26;2.73;;;2.53;;
4047;SDS011;2038;51.728;6.674;2023-02-28T10:37:37;3.93;;;3.10;;
4047;SDS011;2038;51.728;6.674;2023-02-28T10:40:34;3.63;;;3.33;;
4047;SDS011;2038;51.728;6.674;2023-02-28T10:43:01;4.80;;;3.53;;
4047;SDS011;2038;51.728;6.674;2023-02-28T10:48:29;3.60;;;3.30;;
4047;SDS011;2038;51.728;6.674;2023-02-28T10:51:03;3.90;;;3.20;;
4047;SDS011;2038;51.728;6.674;2023-02-28T10:56:17;3.43;;;3.13;;
4047;SDS011;2038;51.728;6.674;2023-02-28T11:01:33;3.37;;;3.07;;
4047;SDS011;2038;51.728;6.674;2023-02-28T11:04:47;3.87;;;3.57;;
4047;SDS011;2038;51.728;6.674;2023-02-28T11:07:38;3.30;;;3.07;;
4047;SDS011;2038;51.728;6.674;2023-02-28T11:09:57;3.43;;;3.20;;
4047;SDS011;2038;51.728;6.674;2023-02-28T11:12:25;3.83;;;2.97;;
4047;SDS011;2038;51.728;6.674;2023-02-28T11:15:04;4.03;;;3.63;;
4047;SDS011;2038;51.728;6.674;2023-02-28T11:17:57;4.17;;;3.87;;
4047;SDS011;2038;51.728;6.674;2023-02-28T11:20:32;3.33;;;3.03;;
4047;SDS011;2038;51.728;6.674;2023-02-28T11:23:00;3.90;;;3.33;;
4047;SDS011;2038;51.728;6.674;2023-02-28T11:25:30;5.40;;;3.70;;
4047;SDS011;2038;51.728;6.674;2023-02-28T11:28:04;3.40;;;3.10;;
4047;SDS011;2038;51.728;6.674;2023-02-28T11:31:00;4.13;;;2.83;;
4047;SDS011;2038;51.728;6.674;2023-02-28T11:36:24;3.57;;;3.33;;
4047;SDS011;2038;51.728;6.674;2023-02-28T11:38:55;4.47;;;3.50;;
4047;SDS011;2038;51.728;6.674;2023-02-28T11:44:48;4.00;;;3.70;;
4047;SDS011;2038;51.728;6.674;2023-02-28T11:50:12;5.00;;;3.60;;
4047;SDS011;2038;51.728;6.674;2023-02-28T11:58:31;4.43;;;4.03;;
4047;SDS011;2038;51.728;6.674;2023-02-28T12:01:38;10.90;;;3.50;;
4047;SDS011;2038;51.728;6.674;2023-02-28T12:07:56;3.87;;;3.47;;
4047;SDS011;2038;51.728;6.674;2023-02-28T12:11:15;5.70;;;3.50;;
4047;SDS011;2038;51.728;6.674;2023-02-28T12:17:26;5.30;;;4.20;;
4047;SDS011;2038;51.728;6.674;2023-02-28T12:31:57;7.83;;;4.00;;
4047;SDS011;2038;51.728;6.674;2023-02-28T12:34:47;4.30;;;3.83;;
4047;SDS011;2038;51.728;6.674;2023-02-28T12:40:12;5.50;;;4.47;;
4047;SDS011;2038;51.728;6.674;2023-02-28T12:42:49;6.73;;;4.23;;
4047;SDS011;2038;51.728;6.674;2023-02-28T12:45:24;4.43;;;4.03;;
4047;SDS011;2038;51.728;6.674;2023-02-28T12:48:08;4.93;;;4.50;;
4047;SDS011;2038;51.728;6.674;2023-02-28T12:50:53;5.60;;;4.27;;
4047;SDS011;2038;51.728;6.674;2023-02-28T12:53:31;5.90;;;3.93;;
4047;SDS011;2038;51.728;6.674;2023-02-28T13:00:14;4.30;;;4.00;;
4047;SDS011;2038;51.728;6.674;2023-02-28T13:03:15;5.30;;;4.73;;
4047;SDS011;2038;51.728;6.674;2023-02-28T13:09:34;4.30;;;3.90;;
4047;SDS011;2038;51.728;6.674;2023-02-28T13:12:04;4.50;;;4.10;;
4047;SDS011;2038;51.728;6.674;2023-02-28T13:14:41;4.73;;;4.30;;
4047;SDS011;2038;51.728;6.674;2023-02-28T13:28:10;4.20;;;3.80;;
4047;SDS011;2038;51.728;6.674;2023-02-28T13:31:16;4.93;;;4.17;;
4047;SDS011;2038;51.728;6.674;2023-02-28T13:38:44;5.50;;;4.20;;
4047;SDS011;2038;51.728;6.674;2023-02-28T13:54:59;4.67;;;4.20;;
4047;SDS011;2038;51.728;6.674;2023-02-28T13:58:24;4.00;;;3.70;;
4047;SDS011;2038;51.728;6.674;2023-02-28T14:01:25;5.57;;;3.63;;
4047;SDS011;2038;51.728;6.674;2023-02-28T14:07:18;9.33;;;4.40;;
4047;SDS011;2038;51.728;6.674;2023-02-28T14:10:01;4.17;;;3.77;;
4047;SDS011;2038;51.728;6.674;2023-02-28T14:15:30;5.37;;;3.60;;
4047;SDS011;2038;51.728;6.674;2023-02-28T14:27:11;5.20;;;4.70;;
4047;SDS011;2038;51.728;6.674;2023-02-28T14:33:31;5.43;;;4.40;;
4047;SDS011;2038;51.728;6.674;2023-02-28T14:36:37;7.90;;;4.50;;
4047;SDS011;2038;51.728;6.674;2023-02-28T14:39:15;7.30;;;5.20;;
4047;SDS011;2038;51.728;6.674;2023-02-28T14:41:49;6.47;;;4.40;;
4047;SDS011;2038;51.728;6.674;2023-02-28T14:44:16;9.97;;;4.70;;
4047;SDS011;2038;51.728;6.674;2023-02-28T14:46:56;5.37;;;4.00;;
4047;SDS011;2038;51.728;6.674;2023-02-28T14:49:41;5.10;;;4.07;;
4047;SDS011;2038;51.728;6.674;2023-02-28T14:52:13;5.43;;;4.93;;
4047;SDS011;2038;51.728;6.674;2023-02-28T14:54:57;5.60;;;4.87;;
4047;SDS011;2038;51.728;6.674;2023-02-28T14:57:39;5.60;;;5.10;;
4047;SDS011;2038;51.728;6.674;2023-02-28T15:02:56;6.70;;;4.77;;
4047;SDS011;2038;51.728;6.674;2023-02-28T15:05:32;4.93;;;4.50;;
4047;SDS011;2038;51.728;6.674;2023-02-28T15:08:04;9.67;;;5.13;;
4047;SDS011;2038;51.728;6.674;2023-02-28T15:10:44;6.17;;;4.93;;
4047;SDS011;2038;51.728;6.674;2023-02-28T15:13:47;5.23;;;4.83;;
4047;SDS011;2038;51.728;6.674;2023-02-28T15:21:28;9.80;;;5.87;;
4047;SDS011;2038;51.728;6.674;2023-02-28T15:27:12;7.60;;;4.67;;
4047;SDS011;2038;51.728;6.674;2023-02-28T15:29:48;6.77;;;5.00;;
4047;SDS011;2038;51.728;6.674;2023-02-28T15:35:18;5.77;;;4.97;;
4047;SDS011;2038;51.728;6.674;2023-02-28T15:37:58;5.97;;;4.87;;
4047;SDS011;2038;51.728;6.674;2023-02-28T15:40:41;6.73;;;4.73;;
4047;SDS011;2038;51.728;6.674;2023-02-28T15:43:24;4.90;;;4.50;;
4047;SDS011;2038;51.728;6.674;2023-02-28T15:46:05;5.60;;;4.93;;
4047;SDS011;2038;51.728;6.674;2023-02-28T15:48:36;4.60;;;4.20;;
4047;SDS011;2038;51.728;6.674;2023-02-28T15:51:22;4.63;;;4.20;;
4047;SDS011;2038;51.728;6.674;2023-02-28T15:54:04;8.10;;;5.27;;
4047;SDS011;2038;51.728;6.674;2023-02-28T15:56:40;6.60;;;5.37;;
4047;SDS011;2038;51.728;6.674;2023-02-28T15:59:16;6.70;;;5.03;;
4047;SDS011;2038;51.728;6.674;2023-02-28T16:05:46;5.60;;;5.10;;
4047;SDS011;2038;51.728;6.674;2023-02-28T16:08:00;11.47;;;5.33;;
4047;SDS011;2038;51.728;6.674;2023-02-28T16:10:40;5.43;;;4.93;;
4047;SDS011;2038;51.728;6.674;2023-02-28T16:13:06;5.47;;;4.37;;
4047;SDS011;2038;51.728;6.674;2023-02-28T16:15:39;6.40;;;5.53;;
4047;SDS011;2038;51.728;6.674;2023-02-28T16:18:10;9.93;;;4.03;;
4047;SDS011;2038;51.728;6.674;2023-02-28T16:20:37;5.23;;;4.63;;
4047;SDS011;2038;51.728;6.674;2023-02-28T16:23:04;6.03;;;5.20;;
4047;SDS011;2038;51.728;6.674;2023-02-28T16:25:34;7.47;;;4.33;;
4047;SDS011;2038;51.728;6.674;2023-02-28T16:28:04;7.27;;;4.50;;
4047;SDS011;2038;51.728;6.674;2023-02-28T16:30:46;4.60;;;4.20;;
4047;SDS011;2038;51.728;6.674;2023-02-28T16:33:12;5.77;;;4.17;;
4047;SDS011;2038;51.728;6.674;2023-02-28T16:35:38;5.93;;;5.30;;
4047;SDS011;2038;51.728;6.674;2023-02-28T16:38:04;4.37;;;3.97;;
4047;SDS011;2038;51.728;6.674;2023-02-28T16:40:33;5.60;;;5.00;;
4047;SDS011;2038;51.728;6.674;2023-02-28T16:43:01;7.57;;;4.57;;
4047;SDS011;2038;51.728;6.674;2023-02-28T16:45:40;5.50;;;5.10;;
4047;SDS011;2038;51.728;6.674;2023-02-28T16:48:07;4.90;;;4.37;;
4047;SDS011;2038;51.728;6.674;2023-02-28T16:50:39;5.97;;;5.17;;
4047;SDS011;2038;51.728;6.674;2023-02-28T16:53:06;6.50;;;5.67;;
4047;SDS011;2038;51.728;6.674;2023-02-28T16:55:33;5.00;;;4.57;;
4047;SDS011;2038;51.728;6.674;2023-02-28T16:58:03;4.93;;;4.43;;
4047;SDS011;2038;51.728;6.674;2023-02-28T17:00:31;5.97;;;5.07;;
4047;SDS011;2038;51.728;6.674;2023-02-28T17:02:58;10.80;;;6.10;;
4047;SDS011;2038;51.728;6.674;2023-02-28T17:05:24;10.30;;;5.83;;
4047;SDS011;2038;51.728;6.674;2023-02-28T17:08:00;9.17;;;5.20;;
4047;SDS011;2038;51.728;6.674;2023-02-28T17:10:26;5.90;;;4.87;;
4047;SDS011;2038;51.728;6.674;2023-02-28T17:12:53;8.03;;;5.20;;
4047;SDS011;2038;51.728;6.674;2023-02-28T17:15:20;6.47;;;5.23;;
4047;SDS011;2038;51.728;6.674;2023-02-28T17:17:47;6.23;;;5.63;;
4047;SDS011;2038;51.728;6.674;2023-02-28T17:20:15;4.97;;;4.47;;
4047;SDS011;2038;51.728;6.674;2023-02-28T17:22:49;6.93;;;5.80;;
4047;SDS011;2038;51.728;6.674;2023-02-28T17:25:16;8.40;;;5.50;;
4047;SDS011;2038;51.728;6.674;2023-02-28T17:27:42;7.17;;;6.37;;
4047;SDS011;2038;51.728;6.674;2023-02-28T17:30:12;5.83;;;5.33;;
4047;SDS011;2038;51.728;6.674;2023-02-28T17:32:52;9.63;;;5.87;;
4047;SDS011;2038;51.728;6.674;2023-02-28T17:35:19;8.90;;;6.80;;
4047;SDS011;2038;51.728;6.674;2023-02-28T17:37:45;10.87;;;8.77;;
4047;SDS011;2038;51.728;6.674;2023-02-28T17:40:15;10.90;;;8.60;;
4047;SDS011;2038;51.728;6.674;2023-02-28T17:42:47;8.37;;;7.30;;
4047;SDS011;2038;51.728;6.674;2023-02-28T17:45:14;8.90;;;7.60;;
4047;SDS011;2038;51.728;6.674;2023-02-28T17:47:40;9.27;;;7.63;;
4047;SDS011;2038;51.728;6.674;2023-02-28T17:50:20;9.57;;;8.23;;
4047;SDS011;2038;51.728;6.674;2023-02-28T17:52:47;7.40;;;6.70;;
4047;SDS011;2038;51.728;6.674;2023-02-28T17:55:15;8.33;;;7.53;;
4047;SDS011;2038;51.728;6.674;2023-02-28T17:57:41;9.23;;;8.20;;
4047;SDS011;2038;51.728;6.674;2023-02-28T18:00:07;12.30;;;8.57;;
4047;SDS011;2038;51.728;6.674;2023-02-28T18:02:40;9.20;;;8.30;;
4047;SDS011;2038;51.728;6.674;2023-02-28T18:05:07;12.63;;;7.90;;
4047;SDS011;2038;51.728;6.674;2023-02-28T18:07:36;13.00;;;9.17;;
4047;SDS011;2038;51.728;6.674;2023-02-28T18:10:04;8.93;;;8.13;;
4047;SDS011;2038;51.728;6.674;2023-02-28T18:12:31;10.63;;;9.67;;
4047;SDS011;2038;51.728;6.674;2023-02-28T18:14:58;10.43;;;8.47;;
4047;SDS011;2038;51.728;6.674;2023-02-28T18:17:24;10.13;;;9.13;;
4047;SDS011;2038;51.728;6.674;2023-02-28T18:19:51;11.67;;;7.03;;
4047;SDS011;2038;51.728;6.674;2023-02-28T18:22:17;7.07;;;6.37;;
4047;SDS011;2038;51.728;6.674;2023-02-28T18:24:43;6.80;;;6.10;;
4047;SDS011;2038;51.728;6.674;2023-02-28T18:27:09;9.40;;;6.63;;
4047;SDS011;2038;51.728;6.674;2023-02-28T18:29:36;7.50;;;6.60;;
4047;SDS011;2038;51.728;6.674;2023-02-28T18:32:02;6.97;;;6.10;;